LHPR Airport Information

Runway Information
Runway 12 Length 4757 ft width 98 ft
Elevation 418 ft Threshold 0 ft Heading 120
Runway 30 Length 4757 ft Width 98 ft
Elevation 426 ft Threshold 0 ft Heading 300
Runway 12L Length 3720 ft width 140 ft
Elevation 0 ft Threshold 0 ft Heading 119
Runway 30R Length 3720 ft Width 140 ft
Elevation 0 ft Threshold 0 ft Heading 299
Airport Frequencies
Type AAS Name AFIS Frequency 129.9 MHZ
Type INFO Name BUDAPEST I Frequency 125.5 MHZ
Airport Navaids
Type VOR-DME Name Gyor Frequency 115100 KHZ
Type NDB Name Gyor Frequency 354 KHZ
Airport Weather Information & NOTAM
ADDS - METARS form results

(1724 UTC 20 May 2018)
 
METAR text: LHPR 201645Z AUTO 02003KT 340V060 CAVOK 23/08 Q1019 RMK BLU
Conditions at: LHPR (GYOR , HU) observed 1645 UTC 20 May 2018
Temperature: 23.0°C (73°F)
Dewpoint: 8.0°C (46°F) [RH = 38%]
Pressure (altimeter): 30.09 inches Hg (1019.0 mb)
Winds: from the NNE (20 degrees) at 3 MPH (3 knots; 1.6 m/s)
Visibility: 6 or more miles (10+ km)
Ceiling: ceiling and visibility are OK
Clouds: unknown
Weather: no significant weather observed at this time